Time;durP1;ratioP1;P1;durP2;ratioP2;P2;SDS_P1;SDS_P2;PMS_P1;PMS_P2;Temp;Humidity;BMP_temperature;BMP_pressure;BME280_temperature;BME280_humidity;BME280_pressure;Samples;Min_cycle;Max_cycle;Signal;HPM_P1;HPM_P2
2021/06/04 00:01:00;;;;;;;3.53;3.23;;;;;;;17.21;85.13;100931.41;5081858;28;20246;-68
2021/06/04 00:03:27;;;;;;;3.53;3.27;;;;;;;17.23;85.18;100924.28;5081125;28;20254;-68
2021/06/04 00:05:55;;;;;;;3.30;3.10;;;;;;;17.18;85.09;100932.34;5081462;28;20204;-68
2021/06/04 00:08:23;;;;;;;4.10;3.70;;;;;;;17.24;85.13;100934.78;5080790;28;20291;-68
2021/06/04 00:10:53;;;;;;;3.77;3.53;;;;;;;16.94;84.70;100936.78;5081534;28;20533;-68
2021/06/04 00:13:24;;;;;;;4.00;3.70;;;;;;;16.92;85.19;100937.78;5081412;28;20230;-68
2021/06/04 00:15:53;;;;;;;5.03;3.40;;;;;;;16.95;84.64;100922.72;5082137;28;20258;-69
2021/06/04 00:18:20;;;;;;;3.60;3.30;;;;;;;16.95;85.08;100924.50;5081067;28;20256;-68
2021/06/04 00:20:46;;;;;;;3.77;3.37;;;;;;;16.94;85.59;100920.97;5081368;28;20471;-68
2021/06/04 00:23:12;;;;;;;3.70;3.33;;;;;;;16.92;85.25;100922.81;5080827;28;20231;-69
2021/06/04 00:25:38;;;;;;;4.20;3.87;;;;;;;16.89;85.26;100920.31;5080783;28;20210;-68
2021/06/04 00:28:05;;;;;;;4.07;3.80;;;;;;;16.52;85.96;100924.25;5081614;28;20210;-68
2021/06/04 00:30:30;;;;;;;4.20;3.90;;;;;;;16.25;87.06;100924.31;5081635;28;20243;-68
2021/06/04 00:32:56;;;;;;;4.67;4.37;;;;;;;16.09;88.17;100923.09;5080896;28;20486;-67
2021/06/04 00:35:24;;;;;;;4.90;4.53;;;;;;;16.31;88.46;100927.63;5081340;28;20211;-68
2021/06/04 00:37:50;;;;;;;4.90;4.43;;;;;;;16.53;88.01;100930.38;5080672;28;20746;-68
2021/06/04 00:40:19;;;;;;;5.80;4.10;;;;;;;16.63;87.51;100923.84;5085176;28;20207;-68
2021/06/04 00:42:45;;;;;;;6.93;4.00;;;;;;;16.73;86.11;100921.72;5084161;28;20247;-67
2021/06/04 00:45:19;;;;;;;3.80;3.50;;;;;;;16.84;85.25;100924.88;5085611;28;20207;-68
2021/06/04 00:47:45;;;;;;;3.97;3.57;;;;;;;16.90;85.55;100918.53;5085218;28;20215;-67
2021/06/04 00:50:15;;;;;;;4.20;3.90;;;;;;;16.85;84.97;100930.09;5083934;28;20206;-68
2021/06/04 00:52:43;;;;;;;4.13;3.67;;;;;;;16.87;85.24;100919.50;5084587;28;20696;-68
2021/06/04 00:55:13;;;;;;;7.43;3.63;;;;;;;16.77;85.03;100916.31;5083836;28;20246;-68
2021/06/04 00:57:39;;;;;;;6.70;3.43;;;;;;;16.75;85.53;100915.50;5084261;28;20317;-68
2021/06/04 01:00:10;;;;;;;3.07;2.80;;;;;;;16.72;85.83;100920.88;5084403;28;20210;-68
2021/06/04 01:02:37;;;;;;;3.70;3.40;;;;;;;16.74;85.86;100903.22;5084518;28;20246;-67
2021/06/04 01:05:05;;;;;;;3.07;2.80;;;;;;;16.72;86.18;100905.06;5083969;28;20205;-67
2021/06/04 01:07:36;;;;;;;3.30;3.10;;;;;;;16.79;85.62;100906.56;5084321;28;20352;-67
2021/06/04 01:10:11;;;;;;;3.90;3.60;;;;;;;16.85;85.62;100905.53;5083931;28;20231;-67
2021/06/04 01:12:51;;;;;;;4.47;3.20;;;;;;;16.90;85.35;100910.59;5084015;28;20293;-69
2021/06/04 01:15:28;;;;;;;3.30;3.10;;;;;;;16.89;85.22;100904.47;5084249;28;20254;-69
2021/06/04 01:18:00;;;;;;;3.20;3.00;;;;;;;16.93;84.93;100905.22;5084792;28;20220;-69
2021/06/04 01:20:28;;;;;;;3.10;2.90;;;;;;;16.93;84.38;100900.81;5084054;28;20593;-69
2021/06/04 01:23:30;;;;;;;3.10;2.90;;;;;;;16.94;84.12;100902.50;5083792;28;20414;-69
2021/06/04 01:26:00;;;;;;;3.53;3.00;;;;;;;16.87;84.35;100896.63;5061502;28;20238;-68
2021/06/04 01:28:31;;;;;;;3.00;2.80;;;;;;;16.84;84.90;100902.00;5083158;28;20241;-68
2021/06/04 01:31:03;;;;;;;4.10;3.77;;;;;;;16.84;84.56;100899.34;5084120;28;20555;-68
2021/06/04 01:33:38;;;;;;;3.37;3.17;;;;;;;16.88;84.40;100900.97;5083663;28;20224;-68
2021/06/04 01:36:05;;;;;;;3.80;3.60;;;;;;;16.93;84.66;100899.97;5083806;28;20245;-68
2021/06/04 01:38:35;;;;;;;4.07;3.63;;;;;;;17.00;84.99;100899.63;5084991;28;20659;-68
2021/06/04 01:41:06;;;;;;;4.30;3.93;;;;;;;17.01;84.63;100900.53;5088683;28;20235;-68
2021/06/04 01:43:37;;;;;;;5.37;3.80;;;;;;;16.99;84.31;100894.44;5085518;28;20352;-68
2021/06/04 01:46:07;;;;;;;4.27;3.97;;;;;;;16.92;84.66;100896.44;5082519;28;20218;-68
2021/06/04 01:48:38;;;;;;;4.13;3.90;;;;;;;16.96;84.55;100898.03;5083399;28;20246;-68
2021/06/04 01:51:08;;;;;;;4.53;4.23;;;;;;;16.96;84.41;100902.47;5084252;28;20713;-69
2021/06/04 01:53:39;;;;;;;4.20;4.00;;;;;;;16.98;84.14;100901.47;5083718;28;20253;-69
2021/06/04 01:56:10;;;;;;;3.93;3.67;;;;;;;17.01;83.84;100909.28;5083307;28;20276;-68
2021/06/04 01:58:41;;;;;;;4.10;3.67;;;;;;;17.02;84.33;100907.50;5083276;28;20767;-68
2021/06/04 02:01:11;;;;;;;4.50;4.20;;;;;;;17.02;83.45;100899.59;5083348;28;20214;-68
2021/06/04 02:03:38;;;;;;;4.50;4.27;;;;;;;16.98;83.51;100901.47;5084093;28;20285;-68
2021/06/04 02:06:06;;;;;;;3.63;3.43;;;;;;;16.95;82.88;100898.97;5083995;28;20230;-68
2021/06/04 02:08:35;;;;;;;6.60;4.20;;;;;;;16.96;83.67;100902.47;5083447;28;20709;-68
2021/06/04 02:11:02;;;;;;;5.23;4.73;;;;;;;16.77;84.12;100904.88;5082820;28;20250;-69
2021/06/04 02:13:29;;;;;;;5.70;5.20;;;;;;;16.38;85.53;100900.16;5082083;28;20234;-68
2021/06/04 02:16:08;;;;;;;5.17;4.80;;;;;;;16.46;85.85;100906.03;5084529;28;20215;-69
2021/06/04 02:18:44;;;;;;;5.07;4.77;;;;;;;16.57;85.45;100905.63;5083542;28;20261;-68
2021/06/04 02:21:14;;;;;;;6.70;6.20;;;;;;;16.58;85.71;100904.72;5083708;28;20268;-69
2021/06/04 02:23:49;;;;;;;6.23;5.83;;;;;;;16.36;86.20;100905.50;5082407;28;20258;-68
2021/06/04 02:26:19;;;;;;;5.80;5.40;;;;;;;16.46;86.33;100906.03;5083553;28;20246;-69
2021/06/04 02:28:54;;;;;;;6.43;6.00;;;;;;;16.55;86.29;100908.34;5082807;28;21163;-68
2021/06/04 02:31:27;;;;;;;6.17;5.70;;;;;;;16.58;86.19;100899.44;5083359;28;20209;-68
2021/06/04 02:34:00;;;;;;;6.20;5.70;;;;;;;16.64;85.50;100904.50;5082253;28;20288;-68
2021/06/04 02:36:30;;;;;;;6.23;5.73;;;;;;;16.66;85.18;100903.50;5082310;28;20238;-68
2021/06/04 02:39:03;;;;;;;5.37;5.07;;;;;;;16.63;85.28;100910.66;5083875;28;20230;-69
2021/06/04 02:41:32;;;;;;;7.57;6.97;;;;;;;16.41;86.31;100903.56;5083361;28;20747;-69
2021/06/04 02:44:05;;;;;;;6.13;5.77;;;;;;;16.48;86.13;100909.47;5081769;28;20720;-69
2021/06/04 02:46:35;;;;;;;6.57;6.07;;;;;;;16.45;86.11;100905.16;5082633;28;20222;-68
2021/06/04 02:49:03;;;;;;;5.93;5.43;;;;;;;16.46;86.24;100909.50;5082437;28;20268;-68
2021/06/04 02:51:32;;;;;;;5.83;5.40;;;;;;;16.51;86.09;100904.09;5083151;28;20349;-68
2021/06/04 02:54:01;;;;;;;5.80;5.40;;;;;;;16.51;86.52;100904.09;5080785;28;20272;-68
2021/06/04 02:56:30;;;;;;;4.27;3.97;;;;;;;16.58;86.14;100902.94;5082403;28;20307;-68
2021/06/04 02:59:01;;;;;;;4.57;4.17;;;;;;;16.48;86.45;100907.69;5081740;28;20669;-68
2021/06/04 03:01:30;;;;;;;4.57;4.27;;;;;;;16.54;86.09;100906.59;5081384;28;20246;-69
2021/06/04 03:03:59;;;;;;;5.40;5.00;;;;;;;16.48;86.24;100901.56;5082926;28;20235;-68
2021/06/04 03:06:28;;;;;;;5.27;4.87;;;;;;;16.43;86.79;100907.00;5082625;28;20682;-68
2021/06/04 03:08:59;;;;;;;5.27;4.77;;;;;;;16.55;86.23;100910.09;5082305;28;20205;-68
2021/06/04 03:11:25;;;;;;;6.30;5.90;;;;;;;16.62;86.23;100909.81;5081715;28;20679;-68
2021/06/04 03:13:51;;;;;;;5.93;5.47;;;;;;;16.70;85.93;100906.03;5081358;28;20246;-68
2021/06/04 03:16:22;;;;;;;5.53;5.03;;;;;;;16.76;85.77;100909.31;5082361;28;20209;-67
2021/06/04 03:18:50;;;;;;;6.13;5.73;;;;;;;16.43;86.29;100907.00;5081473;28;20257;-68
2021/06/04 03:21:21;;;;;;;6.87;6.27;;;;;;;16.27;87.25;100911.94;5088527;28;20229;-68
2021/06/04 03:23:48;;;;;;;6.37;5.97;;;;;;;16.16;87.98;100914.09;5088092;28;20255;-68
2021/06/04 03:26:17;;;;;;;6.30;5.90;;;;;;;16.19;88.26;100906.06;5088150;28;20551;-68
2021/06/04 03:28:44;;;;;;;6.93;6.33;;;;;;;16.31;87.90;100909.19;5087251;28;20232;-69
2021/06/04 03:31:12;;;;;;;6.17;5.60;;;;;;;16.35;87.35;100911.69;5082813;28;20242;-69
2021/06/04 03:33:41;;;;;;;6.07;5.57;;;;;;;16.37;87.01;100911.59;5082348;28;20268;-68
2021/06/04 03:36:10;;;;;;;6.17;5.80;;;;;;;16.36;87.34;100909.91;5082230;28;20291;-68
2021/06/04 03:38:37;;;;;;;5.93;5.33;;;;;;;16.45;86.85;100912.19;5081474;28;20241;-68
2021/06/04 03:41:05;;;;;;;5.10;4.80;;;;;;;16.48;86.45;100914.72;5080929;28;20246;-68
2021/06/04 03:43:31;;;;;;;6.33;4.73;;;;;;;16.48;86.30;100920.84;5081189;28;20316;-68
2021/06/04 03:45:57;;;;;;;5.17;4.73;;;;;;;16.53;86.20;100920.72;5081695;28;20240;-68
2021/06/04 03:48:26;;;;;;;5.03;4.63;;;;;;;16.45;86.83;100920.09;5081928;28;20234;-68
2021/06/04 03:50:56;;;;;;;4.40;4.10;;;;;;;16.46;86.40;100914.78;5082322;28;20206;-68
2021/06/04 03:53:23;;;;;;;5.20;4.83;;;;;;;16.51;86.16;100926.94;5080759;28;20705;-68
2021/06/04 03:55:49;;;;;;;4.90;4.60;;;;;;;16.51;86.12;100922.53;5081686;28;20589;-68
2021/06/04 03:58:17;;;;;;;4.30;4.00;;;;;;;16.52;86.09;100926.03;5080999;28;20262;-68
2021/06/04 04:00:46;;;;;;;4.77;4.47;;;;;;;16.55;85.73;100926.78;5081624;28;20317;-68
2021/06/04 04:03:14;;;;;;;4.20;3.90;;;;;;;16.61;85.55;100920.41;5081317;28;20264;-68
2021/06/04 04:05:40;;;;;;;4.47;4.17;;;;;;;16.69;85.97;100923.66;5082238;28;20459;-68
2021/06/04 04:08:09;;;;;;;4.73;4.40;;;;;;;16.71;85.91;100926.19;5080898;28;20790;-68
2021/06/04 04:10:35;;;;;;;4.90;4.50;;;;;;;16.73;85.35;100925.25;5081874;28;20656;-68
2021/06/04 04:13:02;;;;;;;5.27;4.97;;;;;;;16.73;85.33;100929.66;5081081;28;20311;-67
2021/06/04 04:15:28;;;;;;;5.43;4.93;;;;;;;16.80;85.32;100924.09;5085768;28;20236;-67
2021/06/04 04:17:58;;;;;;;4.30;4.00;;;;;;;16.85;84.57;100929.25;5085206;28;20201;-67
2021/06/04 04:20:27;;;;;;;4.67;4.27;;;;;;;16.82;84.40;100924.94;5085308;28;20203;-67
2021/06/04 04:22:54;;;;;;;3.93;3.67;;;;;;;16.75;84.23;100919.91;5085424;28;20890;-67
2021/06/04 04:25:22;;;;;;;4.27;3.97;;;;;;;16.68;84.35;100921.91;5085444;28;20231;-67
2021/06/04 04:27:48;;;;;;;4.70;4.40;;;;;;;16.77;84.19;100928.63;5084386;28;20243;-67
2021/06/04 04:30:16;;;;;;;4.30;4.00;;;;;;;16.80;84.32;100933.78;5084558;28;20717;-68
2021/06/04 04:32:44;;;;;;;4.97;4.20;;;;;;;16.86;84.57;100937.06;5085359;28;20266;-67
2021/06/04 04:35:14;;;;;;;5.37;4.97;;;;;;;16.86;84.31;100930.94;5083950;28;20326;-67
2021/06/04 04:37:40;;;;;;;5.00;4.67;;;;;;;16.97;84.17;100931.41;5085060;28;20672;-68
2021/06/04 04:40:08;;;;;;;4.57;4.20;;;;;;;17.03;84.31;100936.47;5084673;28;20233;-67
2021/06/04 04:42:36;;;;;;;4.33;4.07;;;;;;;17.11;84.28;100932.69;5084523;28;20203;-68
2021/06/04 04:45:05;;;;;;;4.30;3.93;;;;;;;17.23;84.30;100942.75;5085511;28;20254;-67
2021/06/04 04:47:31;;;;;;;4.43;4.03;;;;;;;17.32;84.16;100939.75;5083924;28;20212;-68
2021/06/04 04:49:57;;;;;;;4.97;4.53;;;;;;;17.38;83.95;100936.91;5084172;28;20197;-67
2021/06/04 04:52:23;;;;;;;4.50;4.20;;;;;;;17.49;83.98;100938.25;5084852;28;20215;-67
2021/06/04 04:54:51;;;;;;;5.57;5.17;;;;;;;17.51;83.87;100929.34;5084763;28;20730;-67
2021/06/04 04:57:19;;;;;;;5.67;5.17;;;;;;;17.54;83.69;100929.22;5084023;28;20235;-67
2021/06/04 04:59:46;;;;;;;5.13;4.83;;;;;;;17.58;83.78;100929.94;5083929;28;20256;-67
2021/06/04 05:02:15;;;;;;;5.23;4.93;;;;;;;17.67;83.78;100933.06;5084572;28;20700;-67
2021/06/04 05:04:42;;;;;;;5.00;4.70;;;;;;;17.64;83.63;100934.97;5084183;28;20223;-68
2021/06/04 05:07:08;;;;;;;5.23;4.83;;;;;;;17.57;83.87;100930.88;5083739;28;20658;-69
2021/06/04 05:09:34;;;;;;;5.37;5.07;;;;;;;17.57;84.09;100930.88;5083821;28;20295;-68
2021/06/04 05:12:00;;;;;;;4.97;4.67;;;;;;;17.65;83.47;100923.50;5084042;28;20260;-68
2021/06/04 05:14:27;;;;;;;4.97;4.67;;;;;;;17.64;82.83;100921.75;5083504;28;20274;-68
2021/06/04 05:16:54;;;;;;;5.30;4.60;;;;;;;17.65;83.67;100926.13;5083931;28;20487;-69
2021/06/04 05:19:20;;;;;;;4.80;4.13;;;;;;;17.73;79.76;100920.56;5083439;28;20317;-69
2021/06/04 05:21:47;;;;;;;4.57;4.27;;;;;;;17.78;82.30;100923.84;5083912;28;20260;-69
2021/06/04 05:24:13;;;;;;;5.40;4.90;;;;;;;17.72;81.27;100914.41;5082743;28;20259;-68
2021/06/04 05:26:39;;;;;;;4.83;4.53;;;;;;;17.70;79.75;100915.38;5083197;28;20613;-69
2021/06/04 05:29:06;;;;;;;5.10;4.70;;;;;;;17.64;80.25;100919.13;5083477;28;20242;-68
2021/06/04 05:31:33;;;;;;;5.73;5.23;;;;;;;17.63;80.83;100920.91;5083367;28;20214;-69
2021/06/04 05:34:01;;;;;;;4.97;4.40;;;;;;;17.62;82.84;100919.22;5083253;28;20280;-69
2021/06/04 05:36:32;;;;;;;6.33;5.93;;;;;;;17.43;82.98;100911.16;5083366;28;20707;-69
2021/06/04 05:38:59;;;;;;;6.63;6.13;;;;;;;17.37;84.06;100918.47;5084135;28;20661;-69
2021/06/04 05:41:25;;;;;;;7.37;6.90;;;;;;;17.29;85.24;100933.75;5082929;28;20689;-69
2021/06/04 05:43:51;;;;;;;9.13;8.07;;;;;;;17.21;86.18;100936.69;5082826;28;20340;-69
2021/06/04 05:46:19;;;;;;;8.83;8.23;;;;;;;17.16;86.95;100936.84;5083351;28;20629;-69
2021/06/04 05:48:46;;;;;;;9.50;8.70;;;;;;;17.21;87.29;100934.91;5082721;28;20230;-69
2021/06/04 05:51:17;;;;;;;8.63;8.10;;;;;;;17.32;87.13;100937.09;5083887;28;20214;-69
2021/06/04 05:53:43;;;;;;;7.30;6.77;;;;;;;17.45;86.75;100933.06;5082109;28;20247;-68
2021/06/04 05:56:12;;;;;;;7.83;7.23;;;;;;;17.53;86.64;100931.91;5083015;28;20293;-68
2021/06/04 05:58:38;;;;;;;10.10;9.50;;;;;;;17.41;87.15;100934.13;5082339;28;20783;-68
2021/06/04 06:01:08;;;;;;;8.67;8.00;;;;;;;17.58;87.35;100933.47;5082595;28;20722;-69
2021/06/04 06:03:37;;;;;;;10.73;9.70;;;;;;;17.52;88.34;100938.09;5082543;28;20234;-68
2021/06/04 06:06:04;;;;;;;10.50;9.67;;;;;;;17.57;88.43;100944.91;5082240;28;20206;-68
2021/06/04 06:08:31;;;;;;;11.87;11.07;;;;;;;17.42;88.20;100954.31;5082809;28;20239;-68
2021/06/04 06:10:57;;;;;;;13.00;12.10;;;;;;;17.31;88.86;100953.88;5082206;28;20699;-69
2021/06/04 06:13:24;;;;;;;12.80;11.77;;;;;;;17.39;89.14;100953.56;5082365;28;20344;-69
2021/06/04 06:15:50;;;;;;;11.90;11.10;;;;;;;17.49;88.78;100959.34;5082113;28;20248;-68
2021/06/04 06:18:17;;;;;;;13.27;12.37;;;;;;;17.49;88.78;100959.34;5082486;28;20652;-67
2021/06/04 06:20:44;;;;;;;14.33;12.40;;;;;;;17.60;88.52;100960.66;5081317;28;20325;-68
2021/06/04 06:23:12;;;;;;;14.00;13.10;;;;;;;17.50;87.68;100961.06;5082196;28;20305;-68
2021/06/04 06:25:45;;;;;;;14.20;13.00;;;;;;;17.46;88.42;100963.84;5082194;28;20242;-68
2021/06/04 06:28:16;;;;;;;12.30;11.40;;;;;;;17.56;86.90;100956.41;5082324;28;20210;-68
2021/06/04 06:30:43;;;;;;;11.20;10.50;;;;;;;17.58;85.35;100958.97;5082473;28;20245;-71
2021/06/04 06:33:09;;;;;;;10.77;10.07;;;;;;;17.72;86.04;100958.41;5081613;28;20932;-68
2021/06/04 06:35:39;;;;;;;10.80;9.60;;;;;;;17.81;84.48;100963.34;5082295;28;20221;-68
2021/06/04 06:38:06;;;;;;;7.80;7.27;;;;;;;17.85;81.95;100965.81;5081833;28;21048;-69
2021/06/04 06:40:32;;;;;;;8.47;7.87;;;;;;;17.96;82.11;100967.19;5080064;28;20238;-69
2021/06/04 06:42:59;;;;;;;7.57;7.07;;;;;;;18.01;80.91;100966.03;5080228;28;20210;-69
2021/06/04 06:45:27;;;;;;;7.73;7.27;;;;;;;18.14;80.70;100965.56;5082451;28;20279;-68
2021/06/04 06:47:54;;;;;;;7.57;7.07;;;;;;;18.22;80.61;100961.66;5081819;28;20206;-67
2021/06/04 06:50:22;;;;;;;7.60;7.20;;;;;;;18.34;81.15;100965.56;5081616;28;20238;-70
2021/06/04 06:52:48;;;;;;;7.73;7.23;;;;;;;18.52;81.79;100973.63;5081714;28;20303;-69
2021/06/04 06:55:15;;;;;;;8.03;7.53;;;;;;;18.60;79.72;100974.16;5081475;28;20298;-69
2021/06/04 06:57:41;;;;;;;7.27;6.87;;;;;;;18.69;81.23;100963.19;5081119;28;20290;-69
2021/06/04 07:00:14;;;;;;;9.00;8.23;;;;;;;18.77;81.69;100976.03;5081548;28;20245;-68
2021/06/04 07:02:40;;;;;;;8.37;7.87;;;;;;;18.84;81.55;100974.88;5082388;28;20211;-69
2021/06/04 07:05:08;;;;;;;8.27;7.77;;;;;;;18.90;80.94;100973.75;5081191;28;20202;-69
2021/06/04 07:07:34;;;;;;;8.80;8.30;;;;;;;18.95;81.67;100980.56;5082002;28;20703;-69
2021/06/04 07:10:00;;;;;;;8.80;8.13;;;;;;;19.04;81.65;100971.31;5081212;28;20200;-69
2021/06/04 07:12:26;;;;;;;8.90;8.30;;;;;;;19.03;80.23;100969.63;5081087;28;20215;-69
2021/06/04 07:14:52;;;;;;;7.83;7.30;;;;;;;19.03;79.11;100972.28;5081277;28;20994;-69
2021/06/04 07:17:19;;;;;;;7.93;7.43;;;;;;;19.07;80.03;100979.13;5081531;28;20697;-69
2021/06/04 07:19:46;;;;;;;8.47;7.87;;;;;;;19.17;81.71;100980.44;5080226;28;20226;-68
2021/06/04 07:22:12;;;;;;;9.00;8.40;;;;;;;19.14;80.73;100979.69;5080656;28;20311;-70
2021/06/04 07:24:37;;;;;;;9.33;8.73;;;;;;;19.21;81.64;100987.28;5080603;28;20226;-69
2021/06/04 07:27:04;;;;;;;8.43;7.93;;;;;;;19.25;80.54;100988.00;5081058;28;20268;-70
2021/06/04 07:29:31;;;;;;;8.80;8.30;;;;;;;19.33;81.78;100990.31;5080916;28;20536;-69
2021/06/04 07:31:57;;;;;;;9.93;9.17;;;;;;;19.36;81.73;100993.66;5081570;28;20249;-70
2021/06/04 07:34:28;;;;;;;9.70;9.10;;;;;;;19.37;82.19;100995.38;5080619;28;20251;-68
2021/06/04 07:36:56;;;;;;;8.80;8.30;;;;;;;19.39;81.43;100993.50;5081071;28;20214;-68
2021/06/04 07:39:25;;;;;;;9.73;9.03;;;;;;;19.45;81.65;100990.56;5081083;28;20234;-68
2021/06/04 07:41:51;;;;;;;9.57;8.97;;;;;;;19.52;81.96;100995.56;5080870;28;20253;-70
2021/06/04 07:44:19;;;;;;;9.90;9.20;;;;;;;19.59;81.70;100995.22;5081574;28;20315;-69
2021/06/04 07:46:46;;;;;;;9.57;9.07;;;;;;;19.62;81.05;100992.44;5080933;28;20857;-68
2021/06/04 07:49:12;;;;;;;9.63;9.03;;;;;;;19.76;81.93;101001.53;5085521;28;20296;-69
2021/06/04 07:51:41;;;;;;;9.90;9.20;;;;;;;19.88;81.44;100987.69;5085046;28;20246;-69
2021/06/04 07:54:11;;;;;;;9.47;8.87;;;;;;;20.04;81.20;100991.31;5084076;28;20231;-68
2021/06/04 07:56:37;;;;;;;9.43;8.73;;;;;;;20.00;80.48;100994.19;5085378;28;20211;-68
2021/06/04 07:59:04;;;;;;;9.50;8.70;;;;;;;20.08;80.23;100992.00;5085400;28;20230;-68
2021/06/04 08:01:30;;;;;;;8.87;8.37;;;;;;;20.14;80.26;100993.50;5085620;28;20290;-69
2021/06/04 08:03:56;;;;;;;7.83;7.43;;;;;;;20.15;79.35;100996.06;5085513;28;20259;-68
2021/06/04 08:06:22;;;;;;;9.23;8.63;;;;;;;20.22;79.14;100993.97;5085562;28;20211;-69
2021/06/04 08:08:53;;;;;;;9.30;8.60;;;;;;;20.31;79.50;100985.53;5086603;28;20646;-69
2021/06/04 08:11:22;;;;;;;9.40;8.80;;;;;;;20.47;80.73;100985.59;5085743;28;20337;-69
2021/06/04 08:13:48;;;;;;;9.97;9.37;;;;;;;20.44;78.76;100983.97;5084801;28;20261;-69
2021/06/04 08:16:15;;;;;;;9.73;9.00;;;;;;;20.54;78.76;100987.00;5084886;28;20302;-69
2021/06/04 08:18:42;;;;;;;8.80;8.30;;;;;;;20.55;79.68;100988.72;5085849;28;20223;-69
2021/06/04 08:21:13;;;;;;;10.23;9.63;;;;;;;20.61;79.66;100988.47;5085935;28;20247;-69
2021/06/04 08:23:41;;;;;;;9.47;8.87;;;;;;;20.69;78.35;100987.19;5085142;28;20270;-69
2021/06/04 08:26:12;;;;;;;8.60;8.00;;;;;;;20.79;78.28;100986.63;5085437;28;20235;-69
2021/06/04 08:28:38;;;;;;;9.07;8.47;;;;;;;20.88;78.03;100984.41;5084062;28;20290;-69
2021/06/04 08:31:05;;;;;;;9.40;8.80;;;;;;;20.92;78.51;100984.16;5085197;28;20933;-69
2021/06/04 08:33:35;;;;;;;8.37;7.87;;;;;;;21.01;76.34;100990.78;5085759;28;20265;-69
2021/06/04 08:36:01;;;;;;;9.43;8.70;;;;;;;21.05;77.22;100978.19;5085378;28;20263;-68
2021/06/04 08:38:30;;;;;;;9.00;8.30;;;;;;;21.18;78.46;100974.78;5085385;28;20205;-69
2021/06/04 08:41:00;;;;;;;9.13;8.53;;;;;;;21.29;79.33;100974.22;5084740;28;20349;-69
2021/06/04 08:43:44;;;;;;;8.77;8.27;;;;;;;21.41;77.48;100972.69;5084504;28;20265;-69
2021/06/04 08:46:18;;;;;;;8.77;7.97;;;;;;;21.46;76.78;100975.09;5085212;28;20215;-68
2021/06/04 08:48:48;;;;;;;8.87;8.10;;;;;;;21.48;76.42;100970.56;5085035;28;20285;-69
2021/06/04 08:51:20;;;;;;;6.37;6.03;;;;;;;21.57;73.38;100981.53;5083190;28;20281;-68
2021/06/04 08:54:02;;;;;;;6.47;6.07;;;;;;;21.66;72.72;100976.63;5084524;28;20708;-68
2021/06/04 08:56:33;;;;;;;5.70;5.30;;;;;;;21.66;71.77;100980.13;5084069;28;20672;-68
2021/06/04 08:59:04;;;;;;;7.97;5.33;;;;;;;21.83;70.65;100981.00;5082650;28;20788;-69
2021/06/04 09:01:36;;;;;;;5.83;5.37;;;;;;;21.81;69.95;100971.28;5082672;28;20211;-69
2021/06/04 09:04:08;;;;;;;5.63;5.33;;;;;;;21.76;70.27;100970.72;5083161;28;20259;-69
2021/06/04 09:06:41;;;;;;;5.90;5.43;;;;;;;21.82;70.11;100977.44;5084648;28;20210;-68
2021/06/04 09:09:16;;;;;;;5.87;5.37;;;;;;;21.86;70.90;100978.13;5084393;28;20257;-69
2021/06/04 09:11:43;;;;;;;5.73;5.30;;;;;;;21.91;69.37;100973.44;5083989;28;20642;-68
2021/06/04 09:14:10;;;;;;;5.83;5.37;;;;;;;21.95;70.06;100975.81;5083118;28;20274;-68
2021/06/04 09:16:47;;;;;;;4.90;4.60;;;;;;;21.89;67.87;100980.63;5083285;28;20222;-68
2021/06/04 09:19:20;;;;;;;9.13;5.10;;;;;;;22.01;69.95;100977.25;5083734;28;20280;-68
2021/06/04 09:21:47;;;;;;;5.57;5.13;;;;;;;22.10;69.79;100973.19;5084598;28;20231;-70
2021/06/04 09:24:15;;;;;;;5.63;5.23;;;;;;;22.19;68.64;100975.31;5083611;28;20741;-69
2021/06/04 09:26:41;;;;;;;5.57;5.17;;;;;;;22.20;68.01;100980.56;5083906;28;20717;-70
2021/06/04 09:29:16;;;;;;;5.67;5.37;;;;;;;22.29;69.35;100976.50;5083732;28;20235;-70
2021/06/04 09:31:44;;;;;;;4.70;4.40;;;;;;;22.39;68.08;100976.81;5082861;28;20207;-70
2021/06/04 09:34:14;;;;;;;5.77;5.30;;;;;;;22.44;67.53;100977.41;5083740;28;20224;-69
2021/06/04 09:36:48;;;;;;;5.47;5.03;;;;;;;22.55;67.09;100979.41;5084705;28;20245;-69
2021/06/04 09:39:22;;;;;;;5.57;5.27;;;;;;;22.57;66.56;100978.38;5083612;28;20255;-69
2021/06/04 09:41:49;;;;;;;5.47;5.07;;;;;;;22.56;65.37;100974.00;5084166;28;20678;-69
2021/06/04 09:44:26;;;;;;;5.03;4.73;;;;;;;22.62;64.42;100977.25;5084291;28;20263;-69
2021/06/04 09:47:06;;;;;;;4.33;4.03;;;;;;;22.69;64.42;100968.78;5084189;28;20215;-69
2021/06/04 09:49:45;;;;;;;5.47;4.97;;;;;;;22.82;65.41;100971.56;5084647;28;20204;-69
2021/06/04 09:52:26;;;;;;;4.83;4.50;;;;;;;22.88;65.08;100975.66;5083973;28;20219;-69
2021/06/04 09:55:06;;;;;;;4.43;4.03;;;;;;;22.99;63.85;100971.38;5087418;28;20575;-69
2021/06/04 09:57:33;;;;;;;5.03;4.43;;;;;;;23.16;64.89;100977.47;5086055;28;20271;-69
2021/06/04 10:00:15;;;;;;;5.70;5.20;;;;;;;23.18;64.81;100976.41;5085277;28;20577;-69
2021/06/04 10:02:41;;;;;;;5.10;4.80;;;;;;;23.15;62.90;100976.63;5084252;28;20239;-68
2021/06/04 10:05:13;;;;;;;5.23;4.70;;;;;;;23.22;62.44;100973.56;5083029;28;20211;-70
2021/06/04 10:07:39;;;;;;;5.03;4.63;;;;;;;23.26;60.37;100972.41;5083690;28;20246;-69
2021/06/04 10:10:15;;;;;;;4.63;4.33;;;;;;;23.38;62.40;100975.13;5083019;28;20907;-69
2021/06/04 10:12:45;;;;;;;4.17;3.87;;;;;;;23.38;58.88;100968.97;5083022;28;20241;-70
2021/06/04 10:15:16;;;;;;;4.20;3.93;;;;;;;23.46;61.24;100964.00;5082640;28;20219;-69
2021/06/04 10:17:58;;;;;;;3.87;3.57;;;;;;;23.52;58.26;100966.25;5083422;28;20458;-69
2021/06/04 10:20:38;;;;;;;4.57;4.17;;;;;;;23.73;59.29;100964.00;5083412;28;20310;-70
2021/06/04 10:23:16;;;;;;;4.07;3.80;;;;;;;23.60;54.86;100971.94;5081991;28;20222;-70
2021/06/04 10:25:50;;;;;;;4.63;4.43;;;;;;;23.55;56.04;100970.56;5082734;28;20207;-70
2021/06/04 10:28:42;;;;;;;4.70;4.40;;;;;;;23.90;59.04;100968.25;5082470;28;20499;-69
2021/06/04 10:31:38;;;;;;;4.60;4.30;;;;;;;23.94;56.42;100971.56;5082993;28;21025;-69
2021/06/04 10:34:20;;;;;;;4.90;4.50;;;;;;;23.87;57.80;100970.28;5082163;28;20227;-69
2021/06/04 10:36:52;;;;;;;4.47;4.17;;;;;;;24.01;59.07;100969.34;5081743;28;20239;-69
2021/06/04 10:39:22;;;;;;;4.87;4.57;;;;;;;24.16;58.36;100965.63;5082707;28;20324;-70
2021/06/04 10:41:55;;;;;;;4.73;4.33;;;;;;;24.34;58.52;100964.41;5082886;28;20583;-70
2021/06/04 10:44:31;;;;;;;5.07;4.40;;;;;;;24.55;56.92;100972.75;5082779;28;20615;-69
2021/06/04 10:47:03;;;;;;;4.90;4.60;;;;;;;24.96;57.66;100974.34;5081966;28;20294;-69
2021/06/04 10:49:42;;;;;;;4.97;4.67;;;;;;;24.93;56.84;100976.38;5082782;28;20342;-70
2021/06/04 10:52:17;;;;;;;4.93;4.53;;;;;;;25.06;55.81;100973.72;5079070;28;20262;-71
2021/06/04 10:55:05;;;;;;;4.30;4.07;;;;;;;25.08;54.46;100963.75;5082439;28;20243;-69
2021/06/04 10:57:38;;;;;;;4.53;4.30;;;;;;;25.21;55.59;100966.41;5082062;28;20249;-69
2021/06/04 11:00:11;;;;;;;4.93;4.53;;;;;;;25.51;53.96;100963.34;5081564;28;21019;-70
2021/06/04 11:02:45;;;;;;;5.03;4.83;;;;;;;25.79;52.87;100951.47;5081350;28;20472;-70
2021/06/04 11:05:37;;;;;;;5.40;5.00;;;;;;;26.11;53.49;100956.22;5081637;28;20712;-69
2021/06/04 11:08:13;;;;;;;4.47;4.27;;;;;;;26.11;51.40;100951.72;5082239;28;20225;-69
2021/06/04 11:10:48;;;;;;;4.70;4.40;;;;;;;26.34;51.86;100955.31;5080930;28;20227;-69
2021/06/04 11:13:34;;;;;;;5.20;4.80;;;;;;;26.68;50.98;100960.75;5080967;28;20645;-69
2021/06/04 11:16:06;;;;;;;4.63;4.33;;;;;;;26.38;51.16;100947.03;5081324;28;20678;-69
2021/06/04 11:18:42;;;;;;;4.90;4.60;;;;;;;26.47;52.64;100946.34;5081942;28;20239;-69
2021/06/04 11:21:21;;;;;;;4.77;4.47;;;;;;;25.98;52.83;100942.91;5081520;28;20214;-68
2021/06/04 11:23:51;;;;;;;4.87;4.57;;;;;;;25.74;54.45;100951.78;5080790;28;20252;-69
2021/06/04 11:26:21;;;;;;;5.03;4.83;;;;;;;25.82;55.11;100940.50;5081610;28;20589;-69
2021/06/04 11:28:52;;;;;;;5.43;5.10;;;;;;;25.76;55.17;100941.81;5081939;28;20686;-69
2021/06/04 11:31:29;;;;;;;5.13;4.73;;;;;;;25.47;55.60;100936.00;5082463;28;20231;-69
2021/06/04 11:34:03;;;;;;;5.30;4.90;;;;;;;25.04;56.55;100944.44;5080433;28;20428;-69
2021/06/04 11:36:31;;;;;;;5.40;5.10;;;;;;;24.58;57.78;100943.19;5082006;28;20232;-68